Time;durP1;ratioP1;P1;durP2;ratioP2;P2;SDS_P1;SDS_P2;PMS_P1;PMS_P2;Temp;Humidity;BMP_temperature;BMP_pressure;BME280_temperature;BME280_humidity;BME280_pressure;Samples;Min_cycle;Max_cycle;Signal;HPM_P1;HPM_P2
2024/04/21 00:00:06;;;;;;;3.80;3.40;;;;;;;9.91;67.82;92790.50;568868;26;849;-70
2024/04/21 00:00:21;;;;;;;4.28;3.88;;;;;;;9.92;67.71;92783.66;566746;26;1072;-70
2024/04/21 00:00:37;;;;;;;4.20;3.80;;;;;;;9.93;67.66;92787.91;568896;26;889;-70
2024/04/21 00:00:52;;;;;;;4.30;3.83;;;;;;;9.93;67.70;92796.19;564763;26;1202;-70
2024/04/21 00:01:08;;;;;;;4.20;3.80;;;;;;;9.92;67.54;92792.69;564851;26;885;-70
2024/04/21 00:01:23;;;;;;;4.00;3.70;;;;;;;9.91;67.46;92791.22;563047;26;1052;-70
2024/04/21 00:01:38;;;;;;;3.97;3.63;;;;;;;9.92;67.60;92789.94;561233;26;1020;-70
2024/04/21 00:01:54;;;;;;;3.72;3.42;;;;;;;9.94;67.45;92789.34;563148;26;1816;-70
2024/04/21 00:02:09;;;;;;;4.57;3.77;;;;;;;9.96;67.53;92786.81;562573;26;1128;-70
2024/04/21 00:02:25;;;;;;;5.13;4.00;;;;;;;9.96;67.58;92788.81;563555;26;873;-70
2024/04/21 00:02:40;;;;;;;4.63;3.73;;;;;;;9.93;67.83;92788.66;561562;26;854;-72
2024/04/21 00:02:56;;;;;;;4.85;3.60;;;;;;;9.91;67.87;92787.75;567474;26;838;-70
2024/04/21 00:03:11;;;;;;;3.97;3.57;;;;;;;9.92;68.16;92783.66;565027;26;901;-70
2024/04/21 00:03:27;;;;;;;3.70;3.40;;;;;;;9.92;67.98;92783.66;564971;26;945;-70
2024/04/21 00:03:42;;;;;;;3.85;3.42;;;;;;;9.92;67.86;92780.91;567133;26;1263;-70
2024/04/21 00:03:57;;;;;;;4.90;3.87;;;;;;;9.91;67.96;92777.44;565103;26;1001;-70
2024/04/21 00:04:13;;;;;;;5.18;3.85;;;;;;;9.92;68.06;92787.16;568663;26;818;-70
2024/04/21 00:04:29;;;;;;;4.35;3.50;;;;;;;9.91;67.96;92784.97;568708;26;1030;-71
2024/04/21 00:04:44;;;;;;;5.40;3.80;;;;;;;9.91;67.73;92782.22;568773;26;940;-70
2024/04/21 00:05:00;;;;;;;5.77;3.93;;;;;;;9.92;67.71;92775.41;565257;26;836;-70
2024/04/21 00:05:15;;;;;;;4.05;3.65;;;;;;;9.91;67.53;92784.97;565866;26;1143;-70
2024/04/21 00:05:31;;;;;;;4.13;3.73;;;;;;;9.92;67.63;92780.91;568930;26;1056;-70
2024/04/21 00:05:47;;;;;;;4.20;3.80;;;;;;;9.91;67.83;92782.97;567060;26;1626;-71
2024/04/21 00:06:02;;;;;;;4.40;4.00;;;;;;;9.91;67.75;92776.72;567494;26;924;-69
2024/04/21 00:06:18;;;;;;;4.30;3.80;;;;;;;9.89;67.59;92791.06;568749;26;924;-69
2024/04/21 00:06:33;;;;;;;4.07;3.67;;;;;;;9.91;67.82;92780.19;567527;26;1862;-69
2024/04/21 00:06:49;;;;;;;4.10;3.70;;;;;;;9.88;67.96;92778.56;566745;26;1227;-69
2024/04/21 00:07:04;;;;;;;4.43;3.70;;;;;;;9.89;68.14;92779.28;567798;26;933;-69
2024/04/21 00:07:19;;;;;;;4.60;3.90;;;;;;;9.86;68.09;92781.16;565173;26;842;-69
2024/04/21 00:07:35;;;;;;;4.38;3.97;;;;;;;9.84;68.12;92786.50;565137;26;846;-69
2024/04/21 00:07:50;;;;;;;4.27;3.87;;;;;;;9.84;68.12;92780.25;565924;26;937;-69
2024/04/21 00:08:06;;;;;;;4.17;3.60;;;;;;;9.84;68.05;92780.25;564999;26;786;-69
2024/04/21 00:08:21;;;;;;;4.20;3.63;;;;;;;9.83;67.77;92778.78;565152;26;906;-69
2024/04/21 00:08:37;;;;;;;4.10;3.70;;;;;;;9.87;68.22;92781.88;567460;26;1088;-69
2024/04/21 00:08:52;;;;;;;4.10;3.70;;;;;;;9.87;68.14;92792.91;566368;26;1022;-69
2024/04/21 00:09:08;;;;;;;4.20;3.80;;;;;;;9.87;68.03;92779.13;565236;26;799;-69
2024/04/21 00:09:23;;;;;;;4.20;3.80;;;;;;;9.86;68.00;92777.66;565690;26;1886;-69
2024/04/21 00:09:39;;;;;;;4.23;3.80;;;;;;;9.86;68.05;92772.88;568007;26;922;-71
2024/04/21 00:09:54;;;;;;;4.20;3.80;;;;;;;9.87;68.09;92774.31;566690;26;951;-69
2024/04/21 00:10:10;;;;;;;4.00;3.63;;;;;;;9.84;68.12;92769.94;566514;26;1146;-69
2024/04/21 00:10:26;;;;;;;3.85;3.55;;;;;;;9.83;68.40;92773.97;566156;26;1000;-69
2024/04/21 00:10:41;;;;;;;3.97;3.67;;;;;;;9.84;68.36;92771.97;565049;26;873;-69
2024/04/21 00:10:57;;;;;;;3.90;3.50;;;;;;;9.84;68.43;92775.47;565934;26;1425;-69
2024/04/21 00:11:12;;;;;;;3.85;3.40;;;;;;;9.83;68.57;92768.47;565062;26;810;-69
2024/04/21 00:11:27;;;;;;;3.97;3.53;;;;;;;9.84;68.38;92774.72;565126;26;877;-69
2024/04/21 00:11:43;;;;;;;4.23;3.53;;;;;;;9.85;68.34;92782.44;560702;26;1163;-69
2024/04/21 00:11:59;;;;;;;4.22;3.72;;;;;;;9.83;68.56;92773.97;563254;26;2042;-69
2024/04/21 00:12:14;;;;;;;4.50;4.10;;;;;;;9.85;68.52;92774.16;562794;26;970;-69
2024/04/21 00:12:30;;;;;;;4.10;3.80;;;;;;;9.86;68.67;92772.13;563196;26;779;-70
2024/04/21 00:12:45;;;;;;;4.03;3.60;;;;;;;9.85;68.60;92773.44;561686;26;949;-69
2024/04/21 00:13:00;;;;;;;4.03;3.60;;;;;;;9.84;68.81;92772.69;563407;26;818;-69
2024/04/21 00:13:17;;;;;;;3.80;3.50;;;;;;;9.83;68.51;92778.78;561245;26;1048;-69
2024/04/21 00:13:33;;;;;;;3.58;3.28;;;;;;;9.72;68.92;92763.38;560833;26;1280;-69
2024/04/21 00:13:48;;;;;;;3.60;3.30;;;;;;;9.83;68.81;92773.28;562660;26;838;-69
2024/04/21 00:14:04;;;;;;;4.13;3.60;;;;;;;9.83;68.64;92770.50;564829;26;929;-69
2024/04/21 00:14:19;;;;;;;4.20;3.80;;;;;;;9.86;68.86;92780.41;564902;26;823;-69
2024/04/21 00:14:35;;;;;;;3.83;3.43;;;;;;;9.87;68.47;92779.84;564275;26;1875;-69
2024/04/21 00:14:50;;;;;;;3.50;3.10;;;;;;;9.87;68.47;92779.84;563739;26;823;-70
2024/04/21 00:15:06;;;;;;;3.70;3.23;;;;;;;9.89;68.42;92777.28;563857;26;1185;-70
2024/04/21 00:15:22;;;;;;;4.13;3.60;;;;;;;9.90;68.68;92778.00;562129;26;962;-69
2024/04/21 00:15:37;;;;;;;3.75;3.42;;;;;;;9.91;68.43;92784.97;565540;26;886;-69
2024/04/21 00:15:53;;;;;;;3.63;3.33;;;;;;;9.91;68.23;92780.19;568836;26;821;-70
2024/04/21 00:16:08;;;;;;;3.92;3.55;;;;;;;9.92;68.31;92778.91;568826;26;1105;-69
2024/04/21 00:16:24;;;;;;;3.90;3.50;;;;;;;9.94;68.49;92779.06;568841;26;818;-69
2024/04/21 00:16:39;;;;;;;4.13;3.70;;;;;;;9.94;68.08;92781.09;564517;26;1159;-69
2024/04/21 00:16:55;;;;;;;4.47;4.07;;;;;;;9.94;68.31;92779.06;564142;26;901;-69
2024/04/21 00:17:11;;;;;;;4.97;4.30;;;;;;;9.95;68.01;92779.81;564862;26;830;-70
2024/04/21 00:17:26;;;;;;;4.93;4.43;;;;;;;9.96;68.26;92781.28;561855;26;1927;-70
2024/04/21 00:17:42;;;;;;;4.53;4.13;;;;;;;9.97;68.35;92785.50;564701;26;874;-69
2024/04/21 00:17:57;;;;;;;4.50;4.10;;;;;;;9.97;68.18;92788.25;562122;26;957;-70
2024/04/21 00:18:13;;;;;;;4.20;3.80;;;;;;;9.98;67.93;92777.97;561547;26;1185;-71
2024/04/21 00:18:28;;;;;;;4.57;4.17;;;;;;;9.98;68.21;92777.97;562445;26;1932;-71
2024/04/21 00:18:44;;;;;;;5.15;4.65;;;;;;;9.98;68.12;92784.22;565372;26;885;-71
2024/04/21 00:18:59;;;;;;;4.83;4.40;;;;;;;9.99;68.41;92784.91;568879;26;924;-71
2024/04/21 00:19:15;;;;;;;5.13;4.40;;;;;;;9.99;68.25;92782.16;568925;26;877;-71
2024/04/21 00:19:30;;;;;;;5.40;4.37;;;;;;;9.98;68.11;92778.69;566168;26;813;-71
2024/04/21 00:19:46;;;;;;;6.35;4.60;;;;;;;9.99;68.12;92785.66;565913;26;980;-72
2024/04/21 00:20:01;;;;;;;6.50;4.70;;;;;;;10.00;68.40;92778.13;566690;26;1853;-71
2024/04/21 00:20:17;;;;;;;5.07;4.40;;;;;;;9.99;68.65;92782.91;567483;26;838;-70
2024/04/21 00:20:32;;;;;;;4.60;4.17;;;;;;;10.00;68.48;92783.63;566390;26;823;-69
2024/04/21 00:20:48;;;;;;;4.40;4.00;;;;;;;10.00;68.51;92780.88;565313;26;1774;-68
2024/04/21 00:21:03;;;;;;;3.93;3.63;;;;;;;9.92;68.36;92767.13;568600;26;895;-70
2024/04/21 00:21:20;;;;;;;3.80;3.50;;;;;;;10.01;68.34;92791.34;566993;26;909;-69
2024/04/21 00:21:35;;;;;;;3.72;3.35;;;;;;;10.00;68.76;92778.88;567685;26;1163;-69
2024/04/21 00:21:51;;;;;;;4.57;3.50;;;;;;;10.00;68.30;92780.88;567983;26;924;-69
2024/04/21 00:22:06;;;;;;;4.13;3.40;;;;;;;10.00;68.45;92783.63;568735;26;1242;-69
2024/04/21 00:22:21;;;;;;;3.63;3.33;;;;;;;10.00;68.44;92776.09;568722;26;1286;-69
2024/04/21 00:22:37;;;;;;;4.15;3.45;;;;;;;10.00;68.54;92783.63;567455;26;2215;-69
2024/04/21 00:22:52;;;;;;;4.53;3.47;;;;;;;9.99;68.46;92780.16;566354;26;821;-69
2024/04/21 00:23:08;;;;;;;3.88;3.55;;;;;;;9.99;68.14;92779.41;566190;26;818;-70
2024/04/21 00:23:24;;;;;;;3.90;3.60;;;;;;;9.99;68.63;92784.91;568877;26;876;-69
2024/04/21 00:23:39;;;;;;;4.20;3.67;;;;;;;9.98;68.34;92781.44;567814;26;837;-69
2024/04/21 00:23:56;;;;;;;4.35;3.95;;;;;;;9.98;68.34;92781.44;567538;26;1389;-69
2024/04/21 00:24:11;;;;;;;5.22;4.03;;;;;;;9.98;68.46;92783.47;564767;26;1738;-70
2024/04/21 00:24:28;;;;;;;5.20;3.60;;;;;;;9.98;68.25;92778.69;567170;26;1528;-68
2024/04/21 00:24:43;;;;;;;3.83;3.40;;;;;;;9.98;68.52;92775.19;567923;26;885;-69
2024/04/21 00:24:59;;;;;;;3.85;3.55;;;;;;;9.98;68.50;92781.44;568716;26;894;-69
2024/04/21 00:25:14;;;;;;;3.80;3.50;;;;;;;9.98;68.32;92780.72;568842;26;810;-69
2024/04/21 00:25:30;;;;;;;3.67;3.30;;;;;;;9.99;68.18;92779.41;567326;26;876;-69
2024/04/21 00:25:58;;;;;;;3.70;3.25;;;;;;;9.99;68.34;92787.69;568815;26;1326;-69
2024/04/21 00:26:13;;;;;;;4.32;3.92;;;;;;;9.97;68.35;92785.50;564739;26;1512;-69
2024/04/21 00:26:29;;;;;;;4.10;3.70;;;;;;;9.97;68.09;92791.00;565096;26;941;-69
2024/04/21 00:26:44;;;;;;;4.20;3.80;;;;;;;9.97;68.06;92785.50;565504;26;901;-69
2024/04/21 00:27:00;;;;;;;4.03;3.63;;;;;;;9.96;68.06;92786.81;566641;26;1814;-69
2024/04/21 00:27:15;;;;;;;4.22;3.63;;;;;;;9.94;68.28;92789.34;568416;26;1049;-69
2024/04/21 00:27:30;;;;;;;4.00;3.60;;;;;;;9.92;68.14;92778.16;567011;26;841;-69
2024/04/21 00:27:46;;;;;;;4.18;3.78;;;;;;;9.90;68.46;92775.97;565968;26;1376;-69
2024/04/21 00:28:01;;;;;;;4.37;3.97;;;;;;;9.90;68.08;92784.25;566622;26;826;-69
2024/04/21 00:28:17;;;;;;;4.53;4.13;;;;;;;9.91;68.25;92790.50;568902;26;916;-69
2024/04/21 00:28:32;;;;;;;4.30;3.90;;;;;;;9.90;68.58;92791.78;568113;26;819;-70
2024/04/21 00:28:49;;;;;;;3.83;3.43;;;;;;;9.89;68.45;92793.09;568794;26;989;-70
2024/04/21 00:29:05;;;;;;;4.10;3.70;;;;;;;9.89;68.40;92784.81;567342;26;913;-69
2024/04/21 00:29:20;;;;;;;4.40;4.00;;;;;;;9.88;68.47;92786.09;565080;26;830;-70
2024/04/21 00:29:36;;;;;;;4.40;4.00;;;;;;;9.88;68.51;92783.34;568134;26;1221;-70
2024/04/21 00:29:51;;;;;;;4.47;4.07;;;;;;;9.87;68.30;92787.41;568878;26;820;-70
2024/04/21 00:30:10;;;;;;;4.27;3.87;;;;;;;9.87;68.22;92784.63;565887;26;1977;-70
2024/04/21 00:30:26;;;;;;;4.13;3.72;;;;;;;9.87;68.45;92779.13;565084;26;861;-70
2024/04/21 00:30:41;;;;;;;4.33;3.93;;;;;;;9.85;68.34;92781.72;565066;26;853;-70
2024/04/21 00:30:57;;;;;;;4.20;3.80;;;;;;;9.85;68.31;92781.72;568791;26;845;-70
2024/04/21 00:31:13;;;;;;;3.88;3.58;;;;;;;9.85;68.52;92782.44;568127;26;1338;-70
2024/04/21 00:31:28;;;;;;;3.90;3.58;;;;;;;9.84;68.52;92785.75;564702;26;1283;-71
2024/04/21 00:31:44;;;;;;;4.20;3.80;;;;;;;9.84;68.66;92780.97;564826;26;845;-70
2024/04/21 00:31:59;;;;;;;4.38;3.97;;;;;;;9.84;68.51;92785.75;564964;26;916;-70
2024/04/21 00:32:14;;;;;;;4.33;3.97;;;;;;;9.81;68.48;92779.31;561392;26;817;-70
2024/04/21 00:32:30;;;;;;;4.33;3.93;;;;;;;9.82;68.36;92783.56;561143;26;802;-70
2024/04/21 00:32:45;;;;;;;4.13;3.72;;;;;;;9.82;68.71;92788.34;562120;26;2023;-70
2024/04/21 00:33:01;;;;;;;4.23;3.83;;;;;;;9.81;68.70;92781.38;561737;26;976;-70
2024/04/21 00:33:16;;;;;;;4.20;3.80;;;;;;;9.78;68.72;92783.22;564045;26;912;-70
2024/04/21 00:33:32;;;;;;;4.37;3.97;;;;;;;9.75;68.85;92780.84;565025;26;945;-70
2024/04/21 00:33:47;;;;;;;4.90;4.20;;;;;;;9.68;69.06;92781.63;567569;26;849;-70
2024/04/21 00:34:03;;;;;;;4.67;4.13;;;;;;;9.63;69.17;92777.03;568845;26;846;-70
2024/04/21 00:34:18;;;;;;;4.47;4.03;;;;;;;9.60;69.26;92778.16;568562;26;1282;-70
2024/04/21 00:34:34;;;;;;;4.63;4.10;;;;;;;9.58;69.19;92778.72;568851;26;979;-70
2024/04/21 00:34:49;;;;;;;5.00;4.40;;;;;;;9.59;69.15;92782.94;568446;26;825;-69
2024/04/21 00:35:05;;;;;;;5.13;4.63;;;;;;;9.44;69.26;92768.50;568749;26;921;-70
2024/04/21 00:35:20;;;;;;;4.97;4.47;;;;;;;9.55;69.19;92777.06;568916;26;948;-71
2024/04/21 00:35:35;;;;;;;4.40;4.00;;;;;;;9.58;69.18;92783.50;568779;26;958;-71
2024/04/21 00:35:51;;;;;;;4.50;4.03;;;;;;;9.56;69.58;92784.06;568514;26;1004;-70
2024/04/21 00:36:06;;;;;;;4.72;4.10;;;;;;;9.57;69.21;92779.28;568800;26;885;-71
2024/04/21 00:36:22;;;;;;;4.57;4.07;;;;;;;9.58;69.35;92786.25;568703;26;1046;-70
2024/04/21 00:36:41;;;;;;;4.57;4.13;;;;;;;9.57;69.50;92788.25;568840;26;806;-71
2024/04/21 00:36:56;;;;;;;4.35;3.95;;;;;;;9.56;69.34;92775.78;567461;26;1943;-71
2024/04/21 00:37:12;;;;;;;4.20;3.80;;;;;;;9.54;69.26;92769.38;566710;26;1088;-70
2024/04/21 00:37:27;;;;;;;4.30;3.90;;;;;;;9.56;69.14;92777.81;566409;26;1801;-70
2024/04/21 00:37:42;;;;;;;4.40;4.00;;;;;;;9.56;69.24;92783.31;565476;26;799;-70
2024/04/21 00:37:58;;;;;;;4.40;4.00;;;;;;;9.56;69.02;92786.06;567993;26;952;-70
2024/04/21 00:38:16;;;;;;;4.40;4.00;;;;;;;9.55;69.03;92781.88;565030;26;802;-70
2024/04/21 00:38:32;;;;;;;4.60;4.03;;;;;;;9.55;68.96;92784.63;564930;26;931;-70
2024/04/21 00:38:47;;;;;;;4.40;3.97;;;;;;;9.53;68.97;92785.16;566289;26;885;-71
2024/04/21 00:39:03;;;;;;;4.38;3.97;;;;;;;9.54;68.92;92786.66;567728;26;1334;-70
2024/04/21 00:39:18;;;;;;;4.60;4.00;;;;;;;9.54;68.74;92785.91;564916;26;930;-70
2024/04/21 00:39:34;;;;;;;4.30;3.90;;;;;;;9.54;68.88;92791.41;565112;26;814;-70
2024/04/21 00:39:49;;;;;;;4.20;3.83;;;;;;;9.53;68.99;92789.97;566693;26;925;-70
2024/04/21 00:40:05;;;;;;;4.20;3.80;;;;;;;9.52;69.04;92791.97;566929;26;2092;-71
2024/04/21 00:40:21;;;;;;;4.40;3.50;;;;;;;9.52;68.92;92789.22;567472;26;898;-70
2024/04/21 00:40:36;;;;;;;4.17;3.33;;;;;;;9.53;69.07;92787.91;566481;26;1119;-70
2024/04/21 00:40:52;;;;;;;3.92;3.55;;;;;;;9.53;68.89;92792.72;568686;26;959;-70
2024/04/21 00:41:07;;;;;;;4.10;3.70;;;;;;;9.52;68.95;92794.00;566593;26;904;-71
2024/04/21 00:41:23;;;;;;;4.72;4.10;;;;;;;9.54;68.94;92796.94;564993;26;853;-70
2024/04/21 00:41:39;;;;;;;4.82;4.00;;;;;;;9.51;69.02;92790.50;565149;26;858;-70
2024/04/21 00:41:54;;;;;;;4.43;3.90;;;;;;;9.52;68.76;92788.47;567959;26;925;-70
2024/04/21 00:42:10;;;;;;;4.18;3.78;;;;;;;9.51;68.76;92796.00;567119;26;929;-69
2024/04/21 00:42:25;;;;;;;3.90;3.60;;;;;;;9.51;69.07;92795.28;568293;26;1113;-70
2024/04/21 00:42:41;;;;;;;4.22;3.83;;;;;;;9.49;68.90;92795.84;567385;26;1979;-70
2024/04/21 00:42:59;;;;;;;4.37;3.97;;;;;;;9.49;69.08;92798.59;567587;26;802;-70
2024/04/21 00:43:15;;;;;;;3.72;3.42;;;;;;;9.49;68.72;92800.59;566981;26;1353;-69
2024/04/21 00:43:30;;;;;;;4.00;3.53;;;;;;;9.48;69.04;92799.91;566056;26;907;-70
2024/04/21 00:43:46;;;;;;;4.88;3.80;;;;;;;9.48;69.14;92797.16;565783;26;846;-70
2024/04/21 00:44:01;;;;;;;5.03;3.80;;;;;;;9.47;68.96;92792.16;565236;26;1179;-70
2024/04/21 00:44:17;;;;;;;4.53;3.78;;;;;;;9.47;69.17;92800.44;565121;26;806;-70
2024/04/21 00:44:32;;;;;;;3.83;3.47;;;;;;;9.44;69.20;92794.00;565126;26;814;-70
2024/04/21 00:44:48;;;;;;;3.88;3.47;;;;;;;9.44;69.19;92796.78;565717;26;1167;-70
2024/04/21 00:45:04;;;;;;;4.07;3.67;;;;;;;9.44;69.36;92799.53;568748;26;1227;-70
2024/04/21 00:45:19;;;;;;;3.67;3.38;;;;;;;9.43;69.20;92795.31;568804;26;853;-69
2024/04/21 00:45:40;;;;;;;3.60;3.30;;;;;;;9.43;69.17;92797.34;566665;26;2080;-70
2024/04/21 00:45:56;;;;;;;4.18;3.70;;;;;;;9.42;69.28;92793.84;567938;26;870;-70
2024/04/21 00:46:12;;;;;;;3.97;3.67;;;;;;;9.42;69.11;92793.13;565001;26;925;-70
2024/04/21 00:46:29;;;;;;;4.32;3.70;;;;;;;9.41;69.24;92795.16;564700;26;1068;-70
2024/04/21 00:46:44;;;;;;;5.15;3.40;;;;;;;9.40;69.15;92793.66;565445;26;889;-70
2024/04/21 00:47:00;;;;;;;4.20;3.28;;;;;;;9.40;69.31;92803.97;568739;26;1024;-70
2024/04/21 00:47:15;;;;;;;4.03;3.63;;;;;;;9.38;69.23;92792.75;568851;26;814;-70
2024/04/21 00:47:31;;;;;;;3.97;3.60;;;;;;;9.37;69.50;92799.56;568817;26;846;-70
2024/04/21 00:47:46;;;;;;;3.83;3.53;;;;;;;9.21;69.38;92776.84;566058;26;861;-70
2024/04/21 00:48:02;;;;;;;4.70;3.92;;;;;;;9.28;69.55;92791.88;564476;26;1176;-70
2024/04/21 00:48:18;;;;;;;5.30;4.20;;;;;;;9.23;69.41;92788.03;561121;26;779;-70
2024/04/21 00:48:33;;;;;;;4.32;3.90;;;;;;;9.20;69.67;92794.69;561082;26;893;-70
2024/04/21 00:48:49;;;;;;;4.70;3.47;;;;;;;9.01;69.69;92773.03;560999;26;881;-70
2024/04/21 00:49:05;;;;;;;5.18;3.53;;;;;;;9.08;69.92;92793.59;561056;26;842;-70
2024/04/21 00:49:21;;;;;;;4.05;3.60;;;;;;;9.03;70.09;92797.28;561137;26;913;-70
2024/04/21 00:49:36;;;;;;;3.78;3.40;;;;;;;8.98;70.16;92796.19;561158;26;881;-70
2024/04/21 00:49:52;;;;;;;4.07;3.67;;;;;;;8.94;70.30;92787.56;558171;26;1125;-70
2024/04/21 00:50:07;;;;;;;4.10;3.70;;;;;;;8.91;70.60;92794.19;561371;26;1919;-70
2024/04/21 00:50:23;;;;;;;3.90;3.60;;;;;;;8.89;70.56;92798.78;564763;26;917;-70
2024/04/21 00:50:40;;;;;;;4.35;3.95;;;;;;;8.88;70.69;92794.56;561110;26;909;-70
2024/04/21 00:50:56;;;;;;;4.80;4.30;;;;;;;8.67;70.86;92766.50;557003;26;895;-69
2024/04/21 00:51:11;;;;;;;4.43;4.03;;;;;;;8.87;70.80;92793.84;553498;26;961;-70
2024/04/21 00:51:27;;;;;;;4.13;3.72;;;;;;;8.86;70.89;92792.34;552941;26;1090;-70
2024/04/21 00:51:43;;;;;;;4.30;3.90;;;;;;;8.88;70.86;92794.56;554383;26;960;-70
2024/04/21 00:52:00;;;;;;;4.13;3.72;;;;;;;8.89;70.90;92791.25;554072;26;798;-70
2024/04/21 00:52:15;;;;;;;3.78;3.40;;;;;;;8.91;70.87;92796.94;553195;26;869;-70
2024/04/21 00:52:30;;;;;;;3.90;3.30;;;;;;;8.92;70.91;92801.16;554836;26;918;-70
2024/04/21 00:52:47;;;;;;;3.45;3.10;;;;;;;8.94;70.81;92793.06;557846;26;2128;-70
2024/04/21 00:53:03;;;;;;;3.00;2.80;;;;;;;8.95;70.74;92799.31;561913;26;1041;-70
2024/04/21 00:53:21;;;;;;;3.28;2.97;;;;;;;8.95;70.53;92802.81;564545;26;963;-70
2024/04/21 00:53:36;;;;;;;3.85;3.40;;;;;;;8.96;70.52;92793.28;564511;26;930;-69
2024/04/21 00:53:53;;;;;;;4.50;3.45;;;;;;;8.93;70.70;92796.38;566324;26;822;-70
2024/04/21 00:54:08;;;;;;;4.40;3.70;;;;;;;8.91;70.68;92793.44;568433;26;984;-70
2024/04/21 00:54:24;;;;;;;4.23;3.83;;;;;;;8.91;70.54;92794.19;568419;26;949;-70
2024/04/21 00:54:39;;;;;;;4.55;4.05;;;;;;;8.90;70.88;92800.25;568070;26;1166;-69
2024/04/21 00:54:55;;;;;;;4.03;3.63;;;;;;;8.88;71.04;92798.03;562408;26;814;-70
2024/04/21 00:55:12;;;;;;;3.50;3.20;;;;;;;8.85;71.21;92798.41;560906;26;1055;-70
2024/04/21 00:55:27;;;;;;;4.63;3.50;;;;;;;8.84;71.42;92792.19;557242;26;962;-70
2024/04/21 00:55:43;;;;;;;5.43;3.63;;;;;;;8.84;71.35;92794.94;557294;26;802;-70
2024/04/21 00:55:59;;;;;;;4.75;3.72;;;;;;;8.82;71.50;92799.50;560812;26;965;-70
2024/04/21 00:56:16;;;;;;;4.25;3.67;;;;;;;8.71;71.51;92780.63;556881;26;1152;-70
2024/04/21 00:56:32;;;;;;;4.15;3.65;;;;;;;8.80;71.67;92797.31;556496;26;2025;-70
2024/04/21 00:56:47;;;;;;;4.30;3.75;;;;;;;8.78;71.75;92797.16;554902;26;831;-70
2024/04/21 00:57:03;;;;;;;4.60;4.00;;;;;;;8.75;71.99;92795.50;553416;26;791;-70
2024/04/21 00:57:19;;;;;;;4.93;4.28;;;;;;;8.57;72.02;92776.63;554644;26;1426;-70
2024/04/21 00:57:34;;;;;;;4.32;3.92;;;;;;;8.68;72.06;92792.75;557092;26;956;-70
2024/04/21 00:57:49;;;;;;;4.37;3.97;;;;;;;8.63;72.15;92791.66;553505;26;944;-69
2024/04/21 00:58:06;;;;;;;5.10;4.20;;;;;;;8.60;72.27;92794.78;554692;26;823;-71
2024/04/21 00:58:22;;;;;;;4.47;4.00;;;;;;;8.53;72.32;92798.28;557087;26;1860;-71
2024/04/21 00:58:38;;;;;;;4.15;3.75;;;;;;;8.57;72.64;92801.38;558133;26;881;-70
2024/04/21 00:58:54;;;;;;;4.10;3.70;;;;;;;8.54;72.62;92800.47;561553;26;1069;-70
2024/04/21 00:59:11;;;;;;;4.25;3.85;;;;;;;8.51;72.70;92801.56;564566;26;889;-70
2024/04/21 00:59:28;;;;;;;4.50;3.60;;;;;;;8.47;72.84;92798.44;560941;26;929;-70
2024/04/21 00:59:43;;;;;;;4.40;3.90;;;;;;;8.45;72.82;92797.53;558973;26;871;-70
2024/04/21 00:59:59;;;;;;;4.50;4.10;;;;;;;8.38;72.97;92799.03;560769;26;1927;-70
2024/04/21 01:00:16;;;;;;;4.20;3.80;;;;;;;8.35;72.80;92802.84;559412;26;965;-70
2024/04/21 01:00:32;;;;;;;4.15;3.75;;;;;;;8.27;72.88;92777.38;559613;26;1153;-70
2024/04/21 01:00:47;;;;;;;4.43;4.00;;;;;;;8.36;73.10;92801.56;558393;26;849;-70
2024/04/21 01:01:04;;;;;;;4.60;3.67;;;;;;;8.37;72.93;92797.53;560716;26;830;-70
2024/04/21 01:01:20;;;;;;;4.50;3.70;;;;;;;8.35;72.89;92795.34;555156;26;839;-70
2024/04/21 01:01:36;;;;;;;3.92;3.63;;;;;;;8.33;72.76;92799.94;558837;26;906;-70
2024/04/21 01:01:52;;;;;;;4.10;3.70;;;;;;;8.28;72.98;92801.56;562924;26;834;-70
2024/04/21 01:02:08;;;;;;;4.50;3.78;;;;;;;8.25;72.70;92802.66;564172;26;1123;-71
2024/04/21 01:02:23;;;;;;;4.57;3.90;;;;;;;8.24;73.21;92794.94;557195;26;819;-70
2024/04/21 01:02:38;;;;;;;4.55;4.05;;;;;;;8.23;73.10;92798.97;557299;26;843;-71
2024/04/21 01:02:54;;;;;;;4.23;3.70;;;;;;;8.22;73.00;92798.25;558107;26;1865;-70
2024/04/21 01:03:09;;;;;;;4.10;3.42;;;;;;;8.21;73.10;92799.50;558172;26;902;-70
2024/04/21 01:03:25;;;;;;;3.97;3.40;;;;;;;8.20;73.26;92794.56;564407;26;953;-71
2024/04/21 01:03:40;;;;;;;3.90;3.50;;;;;;;8.17;73.05;92793.66;564219;26;1147;-70
2024/04/21 01:03:56;;;;;;;3.80;3.50;;;;;;;8.05;73.34;92778.81;564474;26;909;-71
2024/04/21 01:04:11;;;;;;;4.03;3.67;;;;;;;8.17;73.30;92796.41;564574;26;794;-70
2024/04/21 01:04:29;;;;;;;3.70;3.40;;;;;;;8.18;73.25;92797.13;564798;26;831;-70
2024/04/21 01:04:45;;;;;;;4.30;3.58;;;;;;;8.19;73.23;92796.59;565117;26;892;-70
2024/04/21 01:05:01;;;;;;;4.33;3.37;;;;;;;8.03;73.08;92770.38;565006;26;893;-70
2024/04/21 01:05:16;;;;;;;4.00;3.33;;;;;;;8.21;72.90;92801.53;566526;26;1100;-70
2024/04/21 01:05:32;;;;;;;4.07;3.67;;;;;;;8.16;72.62;92789.44;565845;26;2192;-70
2024/04/21 01:05:48;;;;;;;3.72;3.42;;;;;;;8.23;73.00;92793.47;568058;26;1090;-71
2024/04/21 01:06:03;;;;;;;3.67;3.33;;;;;;;8.22;73.01;92792.75;564992;26;1912;-72
2024/04/21 01:06:19;;;;;;;3.92;3.53;;;;;;;8.25;72.87;92793.66;564630;26;957;-73
2024/04/21 01:06:34;;;;;;;4.07;3.60;;;;;;;8.27;72.59;92794.59;565440;26;830;-72
2024/04/21 01:06:50;;;;;;;4.03;3.60;;;;;;;8.28;72.67;92787.09;565697;26;1035;-72
2024/04/21 01:07:05;;;;;;;4.10;3.70;;;;;;;8.30;72.59;92790.75;564854;26;854;-72
2024/04/21 01:07:21;;;;;;;4.22;3.80;;;;;;;8.32;72.27;92792.94;561046;26;1036;-73
2024/04/21 01:07:37;;;;;;;4.03;3.63;;;;;;;8.33;72.42;92795.16;559719;26;831;-73
2024/04/21 01:07:52;;;;;;;3.72;3.10;;;;;;;8.35;72.05;92794.59;560992;26;862;-73
2024/04/21 01:08:08;;;;;;;3.65;3.17;;;;;;;8.37;72.22;92789.28;558297;26;901;-72
2024/04/21 01:08:24;;;;;;;4.57;3.53;;;;;;;8.37;72.32;92797.53;557560;26;1227;-73
2024/04/21 01:08:39;;;;;;;4.63;3.37;;;;;;;8.37;72.03;92798.28;561165;26;790;-73
2024/04/21 01:08:55;;;;;;;3.83;3.28;;;;;;;8.38;71.86;92794.22;560922;26;893;-72
2024/04/21 01:09:10;;;;;;;3.67;3.27;;;;;;;8.39;71.94;92795.72;561829;26;783;-72
2024/04/21 01:09:26;;;;;;;3.92;3.47;;;;;;;8.39;72.03;92800.47;564829;26;913;-72
2024/04/21 01:09:41;;;;;;;3.93;3.50;;;;;;;8.38;71.89;92796.97;565084;26;787;-72
2024/04/21 01:09:57;;;;;;;3.40;3.10;;;;;;;8.39;71.81;92794.97;566578;26;1862;-73
2024/04/21 01:10:12;;;;;;;3.53;3.20;;;;;;;8.39;71.75;92798.47;565716;26;1177;-72
2024/04/21 01:10:28;;;;;;;3.83;3.50;;;;;;;8.39;71.87;92790.22;565075;26;782;-72
2024/04/21 01:10:43;;;;;;;4.07;3.67;;;;;;;8.40;71.80;92791.66;565182;26;1235;-72
2024/04/21 01:10:59;;;;;;;3.97;3.63;;;;;;;8.42;71.74;92795.88;565579;26;866;-72
2024/04/21 01:11:18;;;;;;;3.87;3.53;;;;;;;8.42;71.77;92793.13;564991;26;807;-72
2024/04/21 01:11:33;;;;;;;3.60;3.30;;;;;;;8.43;71.84;92789.84;564909;26;925;-73
2024/04/21 01:11:50;;;;;;;3.67;3.37;;;;;;;8.45;71.70;92795.50;566866;26;1172;-72
2024/04/21 01:12:05;;;;;;;3.40;3.10;;;;;;;8.45;71.75;92798.25;566463;26;896;-72
2024/04/21 01:12:21;;;;;;;3.53;3.20;;;;;;;8.45;71.45;92795.50;565035;26;794;-72
2024/04/21 01:12:43;;;;;;;4.10;3.23;;;;;;;8.43;71.64;92795.34;566017;26;1904;-72
2024/04/21 01:12:58;;;;;;;4.03;3.28;;;;;;;8.41;71.60;92792.41;565454;26;918;-72
2024/04/21 01:13:14;;;;;;;4.32;3.33;;;;;;;8.38;71.40;92791.47;568265;26;870;-74
2024/04/21 01:13:29;;;;;;;5.07;3.50;;;;;;;8.37;71.30;92792.78;566403;26;1811;-72
2024/04/21 01:13:45;;;;;;;8.00;3.90;;;;;;;8.36;71.63;92794.06;566363;26;799;-72
2024/04/21 01:14:00;;;;;;;7.73;3.80;;;;;;;8.35;71.55;92791.84;565357;26;972;-72
2024/04/21 01:14:16;;;;;;;4.32;3.58;;;;;;;8.36;71.43;92796.06;568865;26;956;-72
2024/04/21 01:14:31;;;;;;;4.33;3.60;;;;;;;8.34;71.36;92801.38;568757;26;940;-72
2024/04/21 01:14:47;;;;;;;3.42;3.13;;;;;;;8.33;71.62;92799.94;566219;26;893;-72
2024/04/21 01:15:03;;;;;;;3.30;3.00;;;;;;;8.32;71.53;92796.44;568122;26;1290;-72
2024/04/21 01:15:19;;;;;;;3.75;3.22;;;;;;;8.27;71.52;92793.88;568920;26;861;-72
2024/04/21 01:15:34;;;;;;;3.90;3.13;;;;;;;8.22;71.50;92798.25;568782;26;905;-72
2024/04/21 01:15:52;;;;;;;4.90;3.40;;;;;;;8.19;71.68;92795.84;567078;26;853;-72
2024/04/21 01:16:07;;;;;;;4.85;3.10;;;;;;;8.15;71.90;92798.22;568771;26;839;-72
2024/04/21 01:16:23;;;;;;;3.22;2.80;;;;;;;8.11;72.02;92795.84;565728;26;1842;-72
2024/04/21 01:16:38;;;;;;;6.10;3.10;;;;;;;8.08;72.06;92804.44;568516;26;949;-72
2024/04/21 01:16:54;;;;;;;6.28;3.00;;;;;;;8.04;72.08;92804.06;567847;26;818;-72
2024/04/21 01:17:09;;;;;;;3.50;2.90;;;;;;;8.00;72.39;92801.69;568674;26;1012;-72
2024/04/21 01:17:24;;;;;;;3.43;3.13;;;;;;;7.95;72.48;92799.84;565549;26;797;-72